Deering (New), AK

03:29 AKST le 01 Mars 2015 (GMT -0900)
Wien Memorial | Change Station
CLOSE
Current Station
Aéroport
Location: Kotzebue,
Altitude: 16 ft
Stations météo à proximité

Alt. 16 ft 66.88 °N, 162.60 °W | Updated 23 hours ago

Mostly Cloudy
Nuageux
3 ° F
Paraît 3 ° F
N
4
Vent Variable Vent de SSE
Gusts 4 mph

Aujourd'hui
Haut(e) -- | Bas -- ° F
--% Risque de précip.
Hier
Haut(e) -- | Bas -- ° F
Precip. -- pouce
9:03 AM 7:04 PM
Lune gibbeuse croissante, 85% visible
Pression 29.79 pouce
Visibilité 0.5 Miles terrestres
Nuages Couvert 2200 ft
Point de rosée -6 ° F
Humidité 59%
Précipitations 0.00 pouce
Profondeur de la couche neigeuse Non disponible.
UV 0 sur 12
Pollen Non disponible.
Qualité de l'air Non disponible.
Flu Activity Non disponible.
METAR PAOT 281231Z 16026KT 1/2SM R09/5000VP6000FT SN FZFG OVC022 M02/M03 A2979 RMK AO2 PK WND 16033/1215 SNB08 P0000 T10171028

More Conditions Fewer Conditions

Pression 29.79 pouce
Visibilité 0.5 Miles terrestres
Nuages Couvert 2200 ft
Point de rosée -6 ° F
Humidité 59%
Précipitations 0.00 pouce
Profondeur de la couche neigeuse Non disponible.
UV 0 sur 12
Pollen Non disponible.
Qualité de l'air Non disponible.
Flu Activity Non disponible.
METAR PAOT 281231Z 16026KT 1/2SM R09/5000VP6000FT SN FZFG OVC022 M02/M03 A2979 RMK AO2 PK WND 16033/1215 SNB08 P0000 T10171028

More Conditions Fewer Conditions

10-Day Weather Forecast

Almanac

Astronomie

Mar. 01, 2015 Lever Coucher
Temps réel
Crépuscule civil
Crépuscule nautique
Crépuscule astronomique
Lune
Durée de lumière visible
Longueur du jour
Tomorrow will be .
, % of the Moon is Illuminated

Extrêmes aujourd'hui

State Highs State Lows

Community

WunderPhotos

Upload Photos

1,801,365 Photos téléchargées !

WunderBlogs® & News

Nearby

Qualité de l'air

  Qualité de l'air Indice de la qualité de l'air Polluant
Not available.

Épaisseur de neige

Station Depth Altitude

Activité sismique

Ville Distance Mag. Time & Date
Minimum magnitude displayed is 2.5.

Températures des eaux côtières

Lieu Température

Stations météo à proximité